Aérodrome :
LOGIN :

S'inscrire | Disclaimer

   EN    FR    IT 

 










Légende :    VFR   VFR Marginal   IFR   IFR Intensif   IFR Très Intensif
Visi : 
Plafond : 
>= 8 km
>= 3000ft
5 à 8 km
1000 à 3000 ft
1500m à 5 km
500 à 1000 ft
800 à 1500m
200 à 500 ft
< 800m
< 200 ft
Symboles :   Orages  Brouillard  Fortes neiges  Fortes précipitations  Vent > 20 kt
SIGMETs :   Divers  Orages  Givrage  Turbulence  Onde Orograph.  Cendres Volcan.







- Altitude de l'aérodrome : 53 ft
- Code IATA : HAM


EDDH - Hamburg

DERNIER METAR :
  • 202350Z 08003KT 5000 MIFG BR NSC M01/M01 Q1003 BECMG 3000

METARs EXPIRÉS :
  • 202320Z VRB02KT 7000 NSC 00/M00 Q1003 NOSIG
  • 202250Z 09003KT 7000 NSC 00/M01 Q1003 NOSIG
  • 202220Z 11005KT 8000 NSC 00/M01 Q1003 NOSIG
  • 202150Z 13006KT 8000 FEW027 SCT100 BKN250 01/M00 Q1002 NOSIG
  • 202120Z 14007KT 8000 FEW006 SCT026 01/00 Q1002 NOSIG

TAF TAF EDDH
Valide du 21 à 00h jusqu'au 22 à 06h UTC


202300Z 2100/2206 13005KT 8000 BKN025
TEMPO 2100/2110 3500 BR BKN007
PROB40
TEMPO 2101/2110 2500 -SN BKN004
BECMG 2118/2121 BKN013
PROB30
TEMPO 2120/2206 BKN007
BECMG 2121/2123 14010KT
Pas de NOTAMs connus pour ce terrain.
1 SIGMET publié pour la FIR Bremen (EDWW) :
 
Turbulence forte
EDWW SIGMET 2 VALID 210000/210300 EDZH
EDWW BREMEN FIR SEV TURB FCST SW OF LINE N5122 E01030 - N5341 E00628 FL180/245 MOV NE 15KT WKN=



MET'MAP, la Météo Aéronautique d'un coup d'oeil ! - Copyright ORBIFLY Décembre 2007 - Disclaimer

ORBIFLY MET'MAP TEAM :

Programmation & Développement : Alexandra Zaïnal
Conception & Développement : Baudouin d'Aumeries
Co-Programmation & Développement : Marc-Olivier Méhu
Soutien technique & logistique : Manuel Goepfert

Contact : metmap@orbifly.com




SOURCES & CREDITS :

   NOAA